Albanel, Canada
Current Conditions -  °F | °C
As of 5:00 AM on Thursday 27 Nov 2014 (Local Time) from CYRJ Reporting Station
Few Clouds Few Clouds  
Wind Chill: -3°   Ceiling: Unl
Heat Index: 12°   Visibility: 25mi
Dew Point:   Wind: 13mph
Humidity: 79%   Direction: 320°NW
Pressure: 30.07"   Gusts: NA
Location:  48.87°N, 72.42°W
Report Text: CYRJ 271000Z 32011KT 25SM FEW025 M11/M14 A3007 RMK SC1 SLP198
Loading
Personal Weather Stations






























Interactive Weather Map New forecast layout! Learn more

10-Day Weather Forecast

Advertisements
Track Severe Weather on mobile